Time;durP1;ratioP1;P1;durP2;ratioP2;P2;SDS_P1;SDS_P2;PMS_P1;PMS_P2;Temp;Humidity;BMP_temperature;BMP_pressure;BME280_temperature;BME280_humidity;BME280_pressure;Samples;Min_cycle;Max_cycle;Signal;HPM_P1;HPM_P2
2021/11/06 00:02:04;;;;;;;;;8.50;8.50;;;;;22.56;38.18;102967.69;4961349;28;46135;-64
2021/11/06 00:04:29;;;;;;;;;9.50;9.50;;;;;22.62;38.38;102979.59;4967193;28;45576;-64
2021/11/06 00:06:54;;;;;;;;;9.50;8.50;;;;;22.55;37.87;102967.84;4965590;28;45697;-64
2021/11/06 00:09:20;;;;;;;;;9.75;8.00;;;;;22.60;37.75;102969.13;4965919;28;46248;-64
2021/11/06 00:11:45;;;;;;;;;8.00;8.00;;;;;22.62;37.69;102969.84;4965795;28;45461;-64
2021/11/06 00:14:11;;;;;;;;;9.25;8.00;;;;;22.60;37.81;102965.63;4965275;28;45419;-64
2021/11/06 00:16:36;;;;;;;;;11.75;9.75;;;;;22.60;38.00;102965.63;4965937;28;45316;-65
2021/11/06 00:19:01;;;;;;;;;13.75;10.75;;;;;22.60;37.98;102966.47;4965764;28;45572;-64
2021/11/06 00:21:27;;;;;;;;;13.00;10.25;;;;;22.60;38.12;102974.44;4970467;28;46462;-64
2021/11/06 00:23:52;;;;;;;;;12.50;9.50;;;;;22.56;38.14;102966.88;4966698;28;45595;-64
2021/11/06 00:26:17;;;;;;;;;8.50;8.00;;;;;22.61;38.48;102976.09;4973704;28;45521;-64
2021/11/06 00:28:43;;;;;;;;;9.00;8.00;;;;;22.61;37.71;102972.63;4969158;28;45512;-64
2021/11/06 00:31:08;;;;;;;;;11.25;8.25;;;;;22.63;37.97;102973.34;4965869;28;45494;-64
2021/11/06 00:33:33;;;;;;;;;13.50;9.00;;;;;22.62;38.26;102968.97;4967624;28;45581;-64
2021/11/06 00:35:59;;;;;;;;;8.25;8.25;;;;;22.60;38.56;102961.16;4995797;28;45504;-64
2021/11/06 00:38:24;;;;;;;;;11.00;10.50;;;;;22.59;38.15;102962.13;4964722;28;45709;-64
2021/11/06 00:40:49;;;;;;;;;10.75;10.00;;;;;22.62;38.38;102972.47;4964847;28;46458;-64
2021/11/06 00:43:15;;;;;;;;;12.00;9.00;;;;;22.45;38.31;102943.91;4970435;28;45504;-64
2021/11/06 00:45:42;;;;;;;;;11.75;9.25;;;;;22.62;38.43;102969.84;4973008;28;45456;-64
2021/11/06 00:48:07;;;;;;;;;11.75;9.75;;;;;22.61;38.42;102968.13;4973095;28;45557;-63
2021/11/06 00:50:33;;;;;;;;;10.50;8.75;;;;;22.58;38.47;102968.44;4974422;28;46051;-65
2021/11/06 00:52:59;;;;;;;;;11.50;10.75;;;;;22.59;38.38;102972.75;4971424;28;45544;-64
2021/11/06 00:55:24;;;;;;;;;11.50;11.00;;;;;22.59;38.01;102970.09;4973065;28;45310;-64
2021/11/06 00:57:50;;;;;;;;;9.50;8.75;;;;;22.55;38.10;102958.06;4976398;28;45437;-64
2021/11/06 01:00:18;;;;;;;;;10.50;8.50;;;;;22.59;38.24;102970.09;4973421;28;46089;-64
2021/11/06 01:02:43;;;;;;;;;10.00;9.00;;;;;22.52;38.59;102953.03;4974952;27;45407;-64
2021/11/06 01:05:10;;;;;;;;;10.00;10.00;;;;;22.57;38.33;102964.09;4973979;28;45393;-64
2021/11/06 01:07:36;;;;;;;;;8.75;8.75;;;;;22.53;38.33;102957.38;4975558;28;45459;-64
2021/11/06 01:10:04;;;;;;;;;12.25;11.00;;;;;22.61;38.28;102972.63;4974507;28;46069;-64
2021/11/06 01:12:29;;;;;;;;;12.75;10.00;;;;;22.60;38.50;102962.97;4973897;28;45933;-64
2021/11/06 01:14:55;;;;;;;;;9.75;9.75;;;;;22.61;38.28;102962.03;4973904;28;45676;-64
2021/11/06 01:17:20;;;;;;;;;13.00;10.50;;;;;22.54;38.78;102961.69;4974267;28;45452;-64
2021/11/06 01:19:45;;;;;;;;;11.75;11.75;;;;;22.52;38.76;102961.00;4974802;28;45540;-64
2021/11/06 01:22:11;;;;;;;;;12.25;11.25;;;;;22.50;38.70;102960.28;4973288;28;45512;-64
2021/11/06 01:24:36;;;;;;;;;11.75;10.25;;;;;22.57;38.27;102974.69;4973383;28;45488;-64
2021/11/06 01:27:02;;;;;;;;;13.75;13.00;;;;;22.61;38.22;102967.31;4976024;28;45375;-63
2021/11/06 01:29:27;;;;;;;;;13.00;11.25;;;;;22.58;37.55;102972.88;4957176;28;46729;-62
2021/11/06 01:31:53;;;;;;;;;12.25;10.75;;;;;22.59;38.16;102966.59;4969751;28;45443;-62
2021/11/06 01:34:18;;;;;;;;;13.25;9.50;;;;;22.63;37.65;102976.84;4969255;28;45372;-63
2021/11/06 01:36:44;;;;;;;;;11.75;10.50;;;;;22.60;38.15;102974.44;4968895;28;45371;-63
2021/11/06 01:39:09;;;;;;;;;10.00;9.75;;;;;22.62;37.80;102977.78;4968807;28;46679;-63
2021/11/06 01:41:35;;;;;;;;;14.25;12.50;;;;;22.59;38.12;102979.84;4973694;28;45593;-63
2021/11/06 01:44:02;;;;;;;;;15.25;12.50;;;;;22.59;38.01;102978.06;4971104;28;45319;-63
2021/11/06 01:46:29;;;;;;;;;14.75;10.50;;;;;22.52;37.36;102972.44;4969006;28;45296;-63
2021/11/06 01:48:55;;;;;;;;;10.50;10.50;;;;;22.60;37.81;102984.19;4968950;28;47464;-63
2021/11/06 01:51:20;;;;;;;;;13.00;12.25;;;;;22.58;37.99;102975.53;4966828;28;45556;-63
2021/11/06 01:53:46;;;;;;;;;12.25;10.00;;;;;22.58;37.23;102975.53;4970512;28;45494;-63
2021/11/06 01:56:11;;;;;;;;;11.50;10.00;;;;;22.57;37.26;102973.84;4971844;28;45252;-63
2021/11/06 01:58:37;;;;;;;;;13.50;11.00;;;;;22.54;37.46;102972.31;4969442;28;47188;-63
2021/11/06 02:01:03;;;;;;;;;11.50;9.75;;;;;22.55;37.12;102978.44;4968118;28;45288;-63
2021/11/06 02:03:28;;;;;;;;;14.50;10.00;;;;;22.51;37.27;102978.72;4968864;28;45486;-63
2021/11/06 02:05:54;;;;;;;;;12.25;11.75;;;;;22.52;37.61;102980.41;4970538;27;45486;-63
2021/11/06 02:08:19;;;;;;;;;14.75;10.25;;;;;22.51;37.46;102969.91;4971520;28;45463;-63
2021/11/06 02:10:46;;;;;;;;;13.25;12.00;;;;;22.52;37.43;102969.78;4971480;28;45568;-63
2021/11/06 02:13:12;;;;;;;;;12.00;11.25;;;;;22.52;37.54;102975.09;4972820;28;45248;-63
2021/11/06 02:15:39;;;;;;;;;10.25;10.25;;;;;22.48;37.50;102978.97;4972877;28;45564;-63
2021/11/06 02:18:05;;;;;;;;;14.50;12.00;;;;;22.52;37.19;102987.50;4972706;28;45361;-63
2021/11/06 02:20:30;;;;;;;;;13.00;11.50;;;;;22.52;37.13;102987.50;4972363;28;45462;-63
2021/11/06 02:22:56;;;;;;;;;11.25;10.25;;;;;22.51;37.36;102984.00;4974857;28;45355;-63
2021/11/06 02:25:22;;;;;;;;;12.00;11.50;;;;;22.47;37.36;102982.59;4972748;28;45632;-63
2021/11/06 02:27:49;;;;;;;;;14.00;10.75;;;;;22.46;37.41;102978.25;4972387;28;45530;-63
2021/11/06 02:30:17;;;;;;;;;11.00;10.50;;;;;22.50;37.61;102978.84;4971142;28;45691;-63
2021/11/06 02:32:43;;;;;;;;;12.25;11.75;;;;;22.50;37.48;102977.03;4971427;28;45592;-63
2021/11/06 02:35:10;;;;;;;;;13.75;11.75;;;;;22.49;37.31;102971.84;4973572;28;45435;-63
2021/11/06 02:37:36;;;;;;;;;13.00;10.25;;;;;22.50;37.38;102976.19;4973218;28;47614;-63
2021/11/06 02:40:05;;;;;;;;;12.00;11.75;;;;;22.48;37.14;102960.41;4972287;28;45541;-63
2021/11/06 02:42:31;;;;;;;;;11.25;11.25;;;;;22.46;36.92;102965.00;4972322;28;45477;-63
2021/11/06 02:44:57;;;;;;;;;11.00;9.25;;;;;22.48;36.83;102963.03;4972718;28;45574;-63
2021/11/06 02:47:23;;;;;;;;;11.75;10.00;;;;;22.50;37.05;102963.78;4972447;28;45422;-63
2021/11/06 02:49:49;;;;;;;;;11.00;10.75;;;;;22.50;37.37;102962.94;4974047;28;45476;-63
2021/11/06 02:52:14;;;;;;;;;11.50;11.50;;;;;22.50;36.88;102960.28;4972536;28;45537;-63
2021/11/06 02:54:40;;;;;;;;;10.25;8.50;;;;;22.47;37.43;102956.09;4972438;28;45448;-63
2021/11/06 02:57:09;;;;;;;;;9.50;9.50;;;;;22.49;36.92;102962.09;4972514;28;45479;-63
2021/11/06 02:59:34;;;;;;;;;15.25;13.50;;;;;22.50;37.19;102955.81;4957046;28;45521;-63
2021/11/06 03:01:59;;;;;;;;;16.50;11.25;;;;;22.48;36.93;102955.09;4974490;28;45410;-63
2021/11/06 03:04:24;;;;;;;;;11.00;11.00;;;;;22.47;37.08;102950.78;4972000;28;45300;-63
2021/11/06 03:06:50;;;;;;;;;7.50;7.50;;;;;22.49;36.88;102959.44;4972113;28;48538;-63
2021/11/06 03:09:15;;;;;;;;;14.75;10.50;;;;;22.47;36.84;102961.38;4970652;28;47654;-63
2021/11/06 03:11:41;;;;;;;;;11.50;11.50;;;;;22.44;36.84;102958.16;4969647;28;45352;-63
2021/11/06 03:14:09;;;;;;;;;13.75;12.00;;;;;22.48;37.26;102960.41;4974011;28;45379;-63
2021/11/06 03:16:40;;;;;;;;;10.75;10.00;;;;;22.44;36.68;102950.19;4971453;28;45377;-63
2021/11/06 03:19:05;;;;;;;;;11.00;11.00;;;;;22.47;37.15;102955.22;4971246;28;45795;-63
2021/11/06 03:21:32;;;;;;;;;11.75;11.25;;;;;22.49;36.51;102950.63;4972037;28;45535;-63
2021/11/06 03:23:57;;;;;;;;;11.25;11.25;;;;;22.45;37.30;102943.91;4972237;28;45295;-63
2021/11/06 03:26:22;;;;;;;;;13.25;13.00;;;;;22.46;36.91;102951.72;4971780;28;45980;-63
2021/11/06 03:28:48;;;;;;;;;11.50;11.50;;;;;22.47;37.04;102958.72;4975240;28;45354;-63
2021/11/06 03:31:13;;;;;;;;;13.50;12.25;;;;;22.45;36.63;102954.53;4972052;28;45374;-63
2021/11/06 03:33:39;;;;;;;;;12.75;12.50;;;;;22.45;36.77;102955.38;4971666;28;45307;-63
2021/11/06 03:36:04;;;;;;;;;12.75;11.50;;;;;22.45;36.96;102954.53;4971988;28;46098;-63
2021/11/06 03:38:30;;;;;;;;;14.25;11.00;;;;;22.43;36.90;102959.94;4971682;28;45400;-63
2021/11/06 03:40:56;;;;;;;;;13.25;12.00;;;;;22.42;36.74;102957.44;4974011;28;45348;-63
2021/11/06 03:43:21;;;;;;;;;11.00;10.25;;;;;22.39;37.04;102959.38;4971637;28;45451;-63
2021/11/06 03:45:47;;;;;;;;;13.75;13.00;;;;;22.39;36.60;102958.53;4971546;28;45356;-63
2021/11/06 03:48:12;;;;;;;;;11.50;10.00;;;;;22.40;36.57;102969.00;4969987;28;45480;-63
2021/11/06 03:50:37;;;;;;;;;17.00;14.00;;;;;22.38;37.05;102970.09;4970573;28;45469;-63
2021/11/06 03:53:03;;;;;;;;;11.50;10.75;;;;;22.38;36.79;102963.00;4973818;28;45394;-63
2021/11/06 03:55:28;;;;;;;;;14.75;13.50;;;;;22.39;36.55;102962.03;4971546;28;46174;-63
2021/11/06 03:57:54;;;;;;;;;12.75;11.00;;;;;22.39;36.93;102964.69;4971343;28;45280;-63
2021/11/06 04:00:20;;;;;;;;;12.50;11.50;;;;;22.38;36.87;102962.16;4971652;28;45377;-63
2021/11/06 04:02:46;;;;;;;;;11.50;10.00;;;;;22.37;36.58;102958.69;4971419;28;45323;-63
2021/11/06 04:05:13;;;;;;;;;12.50;11.25;;;;;22.34;37.03;102958.94;4972497;28;46122;-63
2021/11/06 04:07:38;;;;;;;;;14.25;11.50;;;;;22.36;36.43;102970.25;4972638;28;45465;-63
2021/11/06 04:10:05;;;;;;;;;13.00;11.50;;;;;22.31;36.58;102955.69;4971413;28;45546;-63
2021/11/06 04:12:30;;;;;;;;;10.00;10.00;;;;;22.35;36.53;102970.41;4971541;28;45386;-64
2021/11/06 04:14:56;;;;;;;;;10.25;8.75;;;;;22.34;36.93;102969.56;4971427;28;45429;-63
2021/11/06 04:17:21;;;;;;;;;13.25;11.25;;;;;22.34;36.38;102972.19;4971399;28;45574;-63
2021/11/06 04:19:47;;;;;;;;;11.00;11.00;;;;;22.34;36.75;102969.56;4971556;28;45300;-63
2021/11/06 04:22:12;;;;;;;;;14.50;11.75;;;;;22.33;36.53;102975.81;4970791;28;45502;-63
2021/11/06 04:24:39;;;;;;;;;12.50;12.50;;;;;22.37;36.87;102979.06;4971110;28;45780;-63
2021/11/06 04:27:08;;;;;;;;;11.75;11.50;;;;;22.20;36.35;102953.97;4969861;28;45244;-63
2021/11/06 04:29:35;;;;;;;;;13.75;10.75;;;;;22.33;36.26;102969.69;4953398;28;45383;-63
2021/11/06 04:32:02;;;;;;;;;14.00;13.50;;;;;22.34;36.78;102968.69;4972940;28;45426;-63
2021/11/06 04:34:27;;;;;;;;;15.25;13.25;;;;;22.35;36.37;102976.50;4970769;28;46241;-63
2021/11/06 04:36:53;;;;;;;;;13.50;12.50;;;;;22.35;36.43;102968.56;4970912;28;45514;-63
2021/11/06 04:39:18;;;;;;;;;16.00;13.25;;;;;22.20;36.30;102938.06;4970992;28;45427;-63
2021/11/06 04:41:43;;;;;;;;;10.00;10.00;;;;;22.33;36.46;102959.09;4971096;28;45410;-63
2021/11/06 04:44:09;;;;;;;;;10.50;10.50;;;;;22.35;36.80;102968.56;4972229;28;46041;-63
2021/11/06 04:46:34;;;;;;;;;10.75;10.25;;;;;22.35;36.84;102973.88;4971316;28;45479;-63
2021/11/06 04:49:00;;;;;;;;;11.00;10.50;;;;;22.33;36.78;102959.09;4970882;28;45518;-63
2021/11/06 04:51:27;;;;;;;;;14.50;11.25;;;;;22.32;36.38;102958.25;4970915;28;45287;-63
2021/11/06 04:53:52;;;;;;;;;13.25;13.25;;;;;22.31;36.49;102959.19;4979455;28;48415;-63
2021/11/06 04:56:17;;;;;;;;;13.25;12.00;;;;;22.35;36.16;102965.91;4979928;28;45378;-63
2021/11/06 04:58:43;;;;;;;;;13.50;11.00;;;;;22.36;36.56;102966.75;4972365;28;45532;-63
2021/11/06 05:01:08;;;;;;;;;14.50;12.25;;;;;22.33;36.67;102965.19;4970367;28;45556;-63
2021/11/06 05:03:33;;;;;;;;;15.00;12.50;;;;;22.34;36.35;102960.75;4970745;28;48175;-63
2021/11/06 05:05:59;;;;;;;;;13.50;12.00;;;;;22.34;36.45;102961.59;4969638;28;45496;-64
2021/11/06 05:08:24;;;;;;;;;14.00;11.00;;;;;22.34;36.33;102953.63;4970657;28;45506;-63
2021/11/06 05:10:50;;;;;;;;;13.25;11.00;;;;;22.33;36.21;102951.13;4971224;28;45624;-64
2021/11/06 05:13:15;;;;;;;;;14.00;13.00;;;;;22.34;36.23;102953.63;4970423;28;46224;-64
2021/11/06 05:15:40;;;;;;;;;13.75;11.00;;;;;22.34;36.47;102952.78;4970020;28;45448;-63
2021/11/06 05:18:06;;;;;;;;;12.25;11.25;;;;;22.33;36.59;102959.91;4970656;28;45783;-64
2021/11/06 05:20:32;;;;;;;;;10.75;10.75;;;;;22.29;36.09;102955.84;4970286;28;45541;-64
2021/11/06 05:22:58;;;;;;;;;13.00;12.50;;;;;22.25;36.00;102957.91;4971226;28;46440;-64
2021/11/06 05:25:24;;;;;;;;;13.25;13.25;;;;;22.28;36.53;102964.75;4970126;28;45276;-63
2021/11/06 05:27:49;;;;;;;;;11.50;11.00;;;;;22.31;36.67;102967.16;4970213;28;45426;-64
2021/11/06 05:30:14;;;;;;;;;11.50;11.50;;;;;22.31;36.62;102968.97;4970093;28;45308;-62
2021/11/06 05:32:40;;;;;;;;;11.00;11.00;;;;;22.30;35.99;102968.16;4970340;28;45278;-62
2021/11/06 05:35:09;;;;;;;;;13.50;12.00;;;;;22.28;36.59;102962.09;4972994;28;45371;-61
2021/11/06 05:37:35;;;;;;;;;12.75;11.25;;;;;22.28;36.05;102964.75;4972920;28;47045;-62
2021/11/06 05:40:00;;;;;;;;;13.00;11.50;;;;;22.31;36.63;102958.34;4991309;28;45684;-62
2021/11/06 05:42:25;;;;;;;;;12.25;12.00;;;;;22.29;36.09;102954.03;4973126;28;46358;-62
2021/11/06 05:44:51;;;;;;;;;13.75;13.50;;;;;22.29;36.04;102962.00;4971519;28;45349;-62
2021/11/06 05:47:17;;;;;;;;;15.75;12.50;;;;;22.21;36.50;102947.69;4974098;28;45510;-62
2021/11/06 05:49:42;;;;;;;;;13.00;12.00;;;;;22.29;36.52;102963.78;4973123;28;45370;-62
2021/11/06 05:52:08;;;;;;;;;10.00;10.00;;;;;22.26;36.42;102961.41;4973099;28;46146;-64
2021/11/06 05:54:33;;;;;;;;;14.75;14.00;;;;;22.28;36.25;102959.44;4972187;28;45494;-63
2021/11/06 05:56:58;;;;;;;;;14.75;13.50;;;;;22.27;36.35;102963.94;4973554;28;45584;-63
2021/11/06 05:59:24;;;;;;;;;12.25;11.00;;;;;22.22;36.64;102952.03;4972630;28;45474;-63
2021/11/06 06:01:50;;;;;;;;;13.75;12.25;;;;;22.26;36.13;102958.75;4974969;28;45327;-62
2021/11/06 06:04:15;;;;;;;;;11.00;11.00;;;;;22.23;36.07;102951.88;4972979;28;45506;-62
2021/11/06 06:06:41;;;;;;;;;11.00;9.00;;;;;22.22;36.14;102954.69;4973155;28;45605;-62
2021/11/06 06:09:06;;;;;;;;;12.25;12.25;;;;;22.22;36.43;102952.88;4973139;28;45430;-62
2021/11/06 06:11:32;;;;;;;;;14.75;11.00;;;;;22.26;36.31;102964.91;4972833;28;45299;-61
2021/11/06 06:13:58;;;;;;;;;10.00;10.00;;;;;22.28;36.61;102970.06;4974770;28;45372;-62
2021/11/06 06:16:23;;;;;;;;;12.50;12.00;;;;;22.28;35.75;102959.44;4972976;28;45529;-62
2021/11/06 06:18:48;;;;;;;;;9.00;9.00;;;;;22.25;36.21;102955.25;4972662;28;45596;-62
2021/11/06 06:21:15;;;;;;;;;15.25;13.00;;;;;22.20;35.85;102949.50;4972774;28;47036;-61
2021/11/06 06:23:41;;;;;;;;;11.75;11.25;;;;;22.25;36.29;102951.78;4969676;28;45422;-62
2021/11/06 06:26:06;;;;;;;;;10.75;10.75;;;;;22.26;36.21;102954.28;4970902;28;45508;-62
2021/11/06 06:28:31;;;;;;;;;12.00;11.50;;;;;22.24;36.34;102956.25;4966907;28;45609;-62
2021/11/06 06:30:57;;;;;;;;;10.00;10.00;;;;;22.25;36.43;102951.78;4968560;28;45469;-62
2021/11/06 06:33:22;;;;;;;;;11.25;10.50;;;;;22.27;36.23;102952.47;4971490;28;45463;-64
2021/11/06 06:35:48;;;;;;;;;11.00;10.00;;;;;22.24;36.25;102944.78;4971429;28;45459;-64
2021/11/06 06:38:13;;;;;;;;;13.50;11.25;;;;;22.27;35.75;102958.63;4971309;28;45366;-63
2021/11/06 06:40:38;;;;;;;;;13.00;11.25;;;;;22.25;36.10;102944.66;4969122;28;45387;-64
2021/11/06 06:43:04;;;;;;;;;13.50;13.00;;;;;22.24;36.15;102945.63;4967957;28;45483;-64
2021/11/06 06:45:29;;;;;;;;;15.00;15.00;;;;;22.27;36.34;102941.88;4967000;28;45477;-63
2021/11/06 06:47:54;;;;;;;;;15.75;13.00;;;;;22.22;36.26;102936.97;4968505;28;45488;-61
2021/11/06 06:50:20;;;;;;;;;13.00;11.50;;;;;22.24;35.94;102953.59;4970939;28;46004;-63
2021/11/06 06:52:45;;;;;;;;;13.00;13.00;;;;;22.28;35.66;102959.44;4959227;28;45283;-64
2021/11/06 06:55:11;;;;;;;;;13.50;11.75;;;;;22.26;36.16;102964.91;4964214;28;45255;-64
2021/11/06 06:57:37;;;;;;;;;15.00;12.00;;;;;22.26;36.26;102969.34;4967850;28;45410;-63
2021/11/06 07:00:10;;;;;;;;;17.50;13.25;;;;;22.26;35.87;102970.19;4968790;28;46145;-64
2021/11/06 07:02:36;;;;;;;;;9.00;8.75;;;;;22.25;36.12;102965.03;4955929;28;45591;-63
2021/11/06 07:05:01;;;;;;;;;10.00;10.00;;;;;22.24;36.17;102968.66;4970266;28;45434;-63
2021/11/06 07:07:27;;;;;;;;;11.00;11.00;;;;;22.22;36.12;102975.91;4966721;28;45287;-64
2021/11/06 07:09:52;;;;;;;;;11.00;11.00;;;;;22.24;35.80;102979.25;4966791;28;46608;-62
2021/11/06 07:12:18;;;;;;;;;10.00;10.00;;;;;22.20;35.66;102972.53;4967705;28;45397;-64
2021/11/06 07:14:44;;;;;;;;;11.25;11.25;;;;;22.20;35.66;102973.34;4971632;28;45826;-64
2021/11/06 07:17:09;;;;;;;;;11.25;9.75;;;;;22.23;36.23;102977.56;4970457;28;45480;-63
2021/11/06 07:19:35;;;;;;;;;12.00;12.00;;;;;22.21;36.20;102988.31;4968038;28;45416;-63
2021/11/06 07:22:00;;;;;;;;;16.00;11.75;;;;;22.16;36.11;102977.25;4967885;28;45342;-63
2021/11/06 07:24:27;;;;;;;;;16.25;12.25;;;;;22.18;35.67;102972.66;4967909;28;45307;-63
2021/11/06 07:26:53;;;;;;;;;14.25;13.75;;;;;22.20;35.69;102986.63;4972057;28;45494;-64
2021/11/06 07:29:18;;;;;;;;;13.50;12.50;;;;;22.20;36.13;102991.91;4971942;28;47108;-64
2021/11/06 07:31:43;;;;;;;;;10.75;10.25;;;;;22.18;35.95;102994.72;4973964;28;45340;-64
2021/11/06 07:34:09;;;;;;;;;11.00;10.00;;;;;22.21;35.82;103001.56;4972018;28;45435;-64
2021/11/06 07:36:34;;;;;;;;;13.00;12.00;;;;;22.18;35.77;102996.50;4971743;28;45383;-63
2021/11/06 07:39:00;;;;;;;;;12.75;11.00;;;;;22.17;35.91;102994.84;4971807;28;45501;-63
2021/11/06 07:41:25;;;;;;;;;11.00;11.00;;;;;22.21;35.82;103008.69;4971358;28;45225;-63
2021/11/06 07:43:51;;;;;;;;;14.00;11.75;;;;;22.14;36.31;102995.09;4972734;28;45231;-64
2021/11/06 07:46:16;;;;;;;;;12.25;12.25;;;;;22.18;36.07;103012.44;4970544;28;45697;-64
2021/11/06 07:48:44;;;;;;;;;15.25;12.25;;;;;22.19;35.83;103011.47;4971620;28;45561;-63
2021/11/06 07:51:10;;;;;;;;;10.50;10.50;;;;;22.18;36.26;103012.44;4971733;28;45539;-64
2021/11/06 07:53:35;;;;;;;;;12.75;10.75;;;;;22.18;35.61;103007.97;4971649;28;45544;-63
2021/11/06 07:56:01;;;;;;;;;10.50;9.25;;;;;22.20;35.70;103012.31;4973872;28;45390;-64
2021/11/06 07:58:29;;;;;;;;;12.00;11.25;;;;;22.19;35.80;103011.47;4970400;28;45467;-64
2021/11/06 08:00:57;;;;;;;;;14.50;13.00;;;;;22.19;36.05;103003.50;4971396;28;45410;-63
2021/11/06 08:03:22;;;;;;;;;12.00;11.00;;;;;22.19;36.13;103006.16;4971490;28;45554;-64
2021/11/06 08:05:48;;;;;;;;;16.75;11.25;;;;;22.13;35.52;102991.59;4971633;28;45629;-64
2021/11/06 08:08:13;;;;;;;;;12.75;12.75;;;;;22.21;36.01;103009.53;4972101;28;45537;-64
2021/11/06 08:10:38;;;;;;;;;16.00;12.50;;;;;22.19;35.48;102998.22;4972496;28;45441;-61
2021/11/06 08:13:04;;;;;;;;;13.75;12.25;;;;;22.15;35.77;102994.97;4971593;28;45255;-61
2021/11/06 08:15:33;;;;;;;;;12.00;12.00;;;;;22.23;35.88;103012.03;4971345;28;45552;-63
2021/11/06 08:17:59;;;;;;;;;10.50;9.50;;;;;22.21;35.71;103000.72;4971241;28;47236;-62
2021/11/06 08:20:24;;;;;;;;;12.25;11.00;;;;;22.22;35.55;103005.06;4971106;28;45475;-62
2021/11/06 08:22:53;;;;;;;;;11.00;9.00;;;;;22.25;35.56;103007.47;4971548;28;45244;-62
2021/11/06 08:25:20;;;;;;;;;11.25;10.50;;;;;22.24;35.59;103008.44;4969902;28;45312;-62
2021/11/06 08:27:48;;;;;;;;;11.50;11.50;;;;;22.24;35.65;103005.78;4970830;28;46314;-63
2021/11/06 08:30:16;;;;;;;;;11.75;11.00;;;;;22.25;35.74;103010.94;4970886;28;45407;-63
2021/11/06 08:32:42;;;;;;;;;11.00;11.00;;;;;22.24;35.57;103019.03;4971164;28;45238;-63
2021/11/06 08:35:10;;;;;;;;;13.50;11.75;;;;;22.22;35.91;103010.38;4972817;28;45379;-63
2021/11/06 08:37:37;;;;;;;;;12.50;11.00;;;;;22.23;35.59;103010.22;4959702;28;46378;-63
2021/11/06 08:40:05;;;;;;;;;10.00;10.00;;;;;22.22;35.99;103000.59;4970674;28;45265;-63
2021/11/06 08:42:31;;;;;;;;;15.00;12.00;;;;;22.23;36.14;103004.06;4970399;28;45349;-63
2021/11/06 08:44:57;;;;;;;;;14.00;12.75;;;;;22.15;35.57;102989.66;4971022;28;45528;-64
2021/11/06 08:47:23;;;;;;;;;12.25;10.50;;;;;22.23;35.66;103010.22;4970657;28;46659;-64
2021/11/06 08:49:49;;;;;;;;;12.00;9.75;;;;;22.24;36.03;103008.44;4972779;28;45612;-64
2021/11/06 08:52:20;;;;;;;;;11.25;11.25;;;;;22.23;35.46;103010.22;4970596;28;45363;-63
2021/11/06 08:54:47;;;;;;;;;11.75;10.00;;;;;22.18;35.52;103009.78;4970871;28;45371;-63
2021/11/06 08:57:13;;;;;;;;;14.00;13.00;;;;;22.25;35.89;103007.47;4970556;28;45542;-63
2021/11/06 08:59:39;;;;;;;;;14.00;11.50;;;;;22.24;35.99;103014.56;4969144;28;45343;-63
2021/11/06 09:02:04;;;;;;;;;12.50;10.00;;;;;22.24;35.82;103011.06;4972963;28;45411;-63
2021/11/06 09:04:29;;;;;;;;;13.25;11.75;;;;;22.22;35.85;103008.56;4969318;28;45358;-63
2021/11/06 09:06:55;;;;;;;;;11.75;11.75;;;;;22.22;35.92;103013.03;4970319;28;46443;-63
2021/11/06 09:09:21;;;;;;;;;13.25;12.50;;;;;22.17;35.71;103003.63;4970592;28;46036;-63
2021/11/06 09:11:48;;;;;;;;;11.00;11.00;;;;;22.24;36.05;103011.91;4973875;28;45374;-64
2021/11/06 09:14:16;;;;;;;;;15.00;13.00;;;;;22.22;36.03;103005.06;4974788;28;45348;-64
2021/11/06 09:16:42;;;;;;;;;12.75;12.50;;;;;22.25;36.07;103013.59;4974916;28;46200;-63
2021/11/06 09:19:07;;;;;;;;;12.25;10.25;;;;;22.25;36.15;103010.13;4973043;28;45491;-64
2021/11/06 09:21:33;;;;;;;;;9.00;9.00;;;;;22.26;35.40;103009.13;4973238;28;45304;-63
2021/11/06 09:24:03;;;;;;;;;12.25;8.75;;;;;22.22;36.11;103002.41;4972133;28;45324;-63
2021/11/06 09:26:34;;;;;;;;;13.75;11.75;;;;;22.26;35.63;103007.31;4973298;28;46518;-64
2021/11/06 09:29:00;;;;;;;;;12.50;12.50;;;;;22.25;35.95;103008.28;4975298;28;45605;-64
2021/11/06 09:31:26;;;;;;;;;11.00;11.00;;;;;22.27;35.50;103002.88;4973340;28;45438;-62
2021/11/06 09:33:51;;;;;;;;;12.50;10.00;;;;;22.27;35.51;103002.88;4973337;28;45452;-64
2021/11/06 09:36:17;;;;;;;;;15.50;13.00;;;;;22.26;36.03;102998.53;4972969;28;45520;-64
2021/11/06 09:38:42;;;;;;;;;12.00;10.50;;;;;22.24;35.94;102993.34;4971840;28;47601;-64
2021/11/06 09:41:09;;;;;;;;;15.25;13.50;;;;;22.28;35.38;102994.78;4975003;28;45323;-64
2021/11/06 09:43:36;;;;;;;;;14.00;13.50;;;;;22.29;35.40;102987.66;4972745;28;45541;-62
2021/11/06 09:46:03;;;;;;;;;12.50;11.00;;;;;22.29;35.59;102991.16;4972874;28;45485;-61
2021/11/06 09:48:29;;;;;;;;;11.25;9.25;;;;;22.29;35.62;102988.50;4972951;28;45469;-62
2021/11/06 09:50:59;;;;;;;;;11.25;11.25;;;;;22.31;35.41;102996.31;4972985;28;45549;-62
2021/11/06 09:53:28;;;;;;;;;12.00;11.50;;;;;22.30;35.47;102994.66;4973228;28;45388;-62
2021/11/06 09:55:54;;;;;;;;;11.25;11.25;;;;;22.27;35.41;102990.47;4975123;28;46336;-62
2021/11/06 09:58:21;;;;;;;;;12.00;9.50;;;;;22.31;35.68;103003.44;4972723;28;45723;-64
2021/11/06 10:00:46;;;;;;;;;13.25;13.00;;;;;22.27;35.67;102979.84;4972814;28;45472;-63
2021/11/06 10:03:13;;;;;;;;;9.50;8.50;;;;;22.29;35.78;102985.00;4973059;28;45284;-63
2021/11/06 10:05:51;;;;;;;;;9.25;9.25;;;;;22.32;35.56;102990.06;4972918;28;46062;-63
2021/11/06 10:08:43;;;;;;;;;12.25;10.25;;;;;22.32;35.79;102979.47;4973678;28;45600;-63
2021/11/06 10:11:12;;;;;;;;;9.50;9.50;;;;;22.32;35.34;102990.06;4973680;28;45628;-62
2021/11/06 10:13:52;;;;;;;;;11.50;10.25;;;;;22.24;35.99;102974.81;4973760;28;45474;-63
2021/11/06 10:16:29;;;;;;;;;12.00;10.00;;;;;22.05;35.29;102941.88;4972675;28;47151;-63
2021/11/06 10:19:03;;;;;;;;;11.25;11.25;;;;;22.32;35.43;102991.88;4970880;28;45489;-62
2021/11/06 10:21:29;;;;;;;;;8.50;8.50;;;;;22.27;35.76;102979.00;4962582;28;45500;-61
2021/11/06 10:23:54;;;;;;;;;13.75;10.50;;;;;22.29;35.73;102980.56;4957968;28;45482;-61
2021/11/06 10:26:21;;;;;;;;;11.50;11.50;;;;;22.28;35.93;102978.00;4972506;28;45491;-62
2021/11/06 10:29:02;;;;;;;;;13.75;13.50;;;;;22.28;35.51;102978.00;4972504;28;45271;-62
2021/11/06 10:31:28;;;;;;;;;17.75;11.75;;;;;22.29;35.51;102982.34;4972537;28;45468;-63
2021/11/06 10:33:53;;;;;;;;;11.50;10.00;;;;;22.29;35.94;102995.63;4972178;28;45470;-63
2021/11/06 10:36:22;;;;;;;;;11.25;11.25;;;;;22.28;36.13;102989.47;4972424;28;47256;-64
2021/11/06 10:39:10;;;;;;;;;12.50;12.25;;;;;22.31;35.99;102990.16;4972516;28;45631;-66
2021/11/06 10:41:39;;;;;;;;;14.25;14.25;;;;;22.26;34.58;102985.25;4956177;28;45400;-63
2021/11/06 10:44:05;;;;;;;;;14.50;14.50;;;;;22.17;34.14;102984.25;4970907;28;45833;-63
2021/11/06 10:46:31;;;;;;;;;21.00;19.50;;;;;22.06;33.63;102987.78;4972186;28;46072;-64
2021/11/06 10:48:58;;;;;;;;;17.25;16.00;;;;;21.92;33.19;102980.97;4971940;28;45328;-63
2021/11/06 10:51:24;;;;;;;;;18.50;18.00;;;;;21.81;32.48;102976.53;4972362;28;45363;-63
2021/11/06 10:53:55;;;;;;;;;20.75;19.50;;;;;21.68;32.37;102984.63;4972592;28;45574;-62
2021/11/06 10:56:20;;;;;;;;;19.75;18.50;;;;;21.62;32.80;102984.19;4973371;28;46380;-63
2021/11/06 10:58:49;;;;;;;;;21.00;19.25;;;;;21.51;32.38;102970.97;4970462;28;45560;-63
2021/11/06 11:01:34;;;;;;;;;28.00;24.00;;;;;21.45;32.80;102976.75;4972099;28;45462;-63
2021/11/06 11:04:03;;;;;;;;;22.00;16.75;;;;;21.37;32.59;102969.44;4970973;28;45391;-63
2021/11/06 11:06:38;;;;;;;;;24.75;22.25;;;;;21.29;32.80;102965.59;4971523;28;47010;-62
2021/11/06 11:09:08;;;;;;;;;20.00;18.75;;;;;21.30;32.65;102963.81;4972210;28;45375;-63